Time;durP1;ratioP1;P1;durP2;ratioP2;P2;SDS_P1;SDS_P2;PMS_P1;PMS_P2;Temp;Humidity;BMP_temperature;BMP_pressure;BME280_temperature;BME280_humidity;BME280_pressure;Samples;Min_cycle;Max_cycle;Signal;HPM_P1;HPM_P2
2021/12/30 00:01:20;;;;;;;6.17;3.43;;;13.80;99.90;;;;;;5072756;28;20197;-85
2021/12/30 00:03:50;;;;;;;9.20;4.00;;;13.80;99.90;;;;;;5072686;28;20201;-85
2021/12/30 00:06:22;;;;;;;11.33;3.80;;;13.80;99.90;;;;;;5072627;28;20645;-83
2021/12/30 00:08:53;;;;;;;9.27;3.43;;;13.90;99.90;;;;;;5072575;28;20221;-85
2021/12/30 00:11:20;;;;;;;9.47;3.67;;;13.90;99.90;;;;;;5085171;28;20666;-84
2021/12/30 00:13:49;;;;;;;8.77;3.63;;;13.90;99.90;;;;;;5092901;28;20219;-86
2021/12/30 00:16:23;;;;;;;4.50;2.47;;;13.90;99.90;;;;;;5093111;28;20198;-84
2021/12/30 00:18:51;;;;;;;5.20;2.83;;;14.00;99.90;;;;;;5092847;28;20181;-84
2021/12/30 00:21:23;;;;;;;5.97;2.60;;;13.90;99.90;;;;;;5094089;28;20216;-85
2021/12/30 00:23:56;;;;;;;5.60;2.13;;;14.00;99.90;;;;;;5092753;28;20345;-85
2021/12/30 00:26:25;;;;;;;3.87;2.13;;;14.00;99.90;;;;;;5093319;28;20563;-84
2021/12/30 00:28:58;;;;;;;2.47;1.87;;;14.10;99.90;;;;;;5096430;28;20246;-87
2021/12/30 00:31:29;;;;;;;5.97;2.00;;;14.00;99.90;;;;;;5096531;28;20658;-84
2021/12/30 00:33:59;;;;;;;4.23;1.90;;;14.00;99.90;;;;;;5096757;27;20231;-85
2021/12/30 00:36:28;;;;;;;3.63;2.20;;;14.10;99.90;;;;;;5096361;28;20186;-85
2021/12/30 00:39:01;;;;;;;2.73;1.70;;;14.10;99.90;;;;;;5096605;28;20211;-83
2021/12/30 00:41:28;;;;;;;3.63;1.73;;;14.10;99.90;;;;;;5096412;28;20219;-87
2021/12/30 00:43:57;;;;;;;2.73;1.80;;;14.10;99.90;;;;;;5096081;28;20648;-86
2021/12/30 00:46:31;;;;;;;3.57;1.40;;;14.00;99.90;;;;;;5096202;28;20729;-85
2021/12/30 00:48:59;;;;;;;3.73;1.67;;;14.10;99.90;;;;;;5096227;28;20236;-84
2021/12/30 00:51:29;;;;;;;3.47;1.70;;;14.10;99.90;;;;;;5095954;27;20455;-85
2021/12/30 00:53:59;;;;;;;2.90;1.50;;;14.10;99.90;;;;;;5096428;28;20189;-85
2021/12/30 00:56:32;;;;;;;4.30;1.70;;;14.10;99.90;;;;;;5096126;28;20640;-84
2021/12/30 00:58:59;;;;;;;3.47;1.83;;;14.10;99.90;;;;;;5094515;28;20208;-84
2021/12/30 01:01:29;;;;;;;3.67;1.63;;;14.00;99.90;;;;;;5095939;28;20193;-84
2021/12/30 01:04:00;;;;;;;1.70;1.60;;;14.00;99.90;;;;;;5094649;28;20231;-84
2021/12/30 01:06:33;;;;;;;2.67;1.63;;;13.90;99.90;;;;;;5095569;28;20197;-83
2021/12/30 01:09:06;;;;;;;3.37;1.60;;;13.80;99.90;;;;;;5096150;28;20225;-84
2021/12/30 01:11:39;;;;;;;2.10;1.53;;;13.80;99.90;;;;;;5083881;28;20197;-84
2021/12/30 01:14:16;;;;;;;4.50;1.53;;;13.80;99.90;;;;;;5075613;28;20209;-83
2021/12/30 01:16:46;;;;;;;2.50;1.57;;;13.90;99.90;;;;;;5075380;28;20285;-84
2021/12/30 01:19:23;;;;;;;2.97;1.30;;;13.80;99.90;;;;;;5075563;28;20263;-86
2021/12/30 01:21:53;;;;;;;1.63;1.23;;;13.80;99.90;;;;;;5075368;28;20193;-82
2021/12/30 01:24:20;;;;;;;1.60;1.10;;;13.80;99.90;;;;;;5075063;28;20289;-83
2021/12/30 01:26:48;;;;;;;4.33;1.33;;;13.80;99.90;;;;;;5075286;28;20210;-84
2021/12/30 01:29:15;;;;;;;3.33;1.17;;;13.80;99.90;;;;;;5074996;28;20233;-84
2021/12/30 01:31:42;;;;;;;2.97;1.03;;;13.80;99.90;;;;;;5075094;28;20194;-82
2021/12/30 01:34:09;;;;;;;1.30;1.00;;;13.80;99.90;;;;;;5075035;28;20209;-85
2021/12/30 01:36:39;;;;;;;1.13;0.90;;;13.90;99.90;;;;;;5074755;28;20202;-82
2021/12/30 01:39:09;;;;;;;1.07;0.80;;;13.90;99.90;;;;;;5074067;28;20688;-82
2021/12/30 01:41:37;;;;;;;1.13;0.80;;;13.80;99.90;;;;;;5074867;28;20190;-84
2021/12/30 01:44:05;;;;;;;1.47;0.87;;;13.90;99.90;;;;;;5074853;28;20225;-82
2021/12/30 01:46:38;;;;;;;0.70;0.70;;;13.90;99.90;;;;;;5074339;28;20317;-83
2021/12/30 01:49:06;;;;;;;1.43;0.73;;;13.90;99.90;;;;;;5074548;28;20283;-86
2021/12/30 01:51:41;;;;;;;0.50;0.50;;;13.90;99.90;;;;;;5074794;28;20202;-85
2021/12/30 01:54:10;;;;;;;1.23;0.70;;;13.90;99.90;;;;;;5074581;28;20201;-84
2021/12/30 01:56:37;;;;;;;3.30;0.83;;;13.90;99.90;;;;;;5074546;28;20194;-84
2021/12/30 01:59:10;;;;;;;0.90;0.60;;;13.90;99.90;;;;;;5074552;28;20190;-85
2021/12/30 02:01:39;;;;;;;0.50;0.50;;;13.90;99.90;;;;;;5074396;28;20194;-85
2021/12/30 02:04:08;;;;;;;1.07;0.60;;;13.90;99.90;;;;;;5074330;28;20197;-84
2021/12/30 02:06:42;;;;;;;0.60;0.60;;;14.00;99.90;;;;;;5074738;28;20202;-83
2021/12/30 02:09:11;;;;;;;1.87;0.80;;;13.90;99.90;;;;;;5074118;28;20700;-85
2021/12/30 02:11:39;;;;;;;0.73;0.70;;;13.90;99.90;;;;;;5074378;28;20220;-83
2021/12/30 02:14:09;;;;;;;0.50;0.50;;;14.00;99.90;;;;;;5074347;28;20206;-85
2021/12/30 02:16:37;;;;;;;1.17;0.70;;;14.00;99.90;;;;;;5082547;28;20220;-84
2021/12/30 02:19:06;;;;;;;0.70;0.70;;;14.00;99.90;;;;;;5094422;28;20208;-85
2021/12/30 02:21:40;;;;;;;0.73;0.60;;;14.10;99.90;;;;;;5095146;28;20213;-86
2021/12/30 02:24:08;;;;;;;0.50;0.50;;;14.00;99.90;;;;;;5094395;28;20209;-85
2021/12/30 02:26:41;;;;;;;0.97;0.97;;;14.20;99.90;;;;;;5094877;28;20237;-85
2021/12/30 02:29:09;;;;;;;0.90;0.50;;;14.10;99.90;;;;;;5094280;28;20233;-83
2021/12/30 02:31:39;;;;;;;0.60;0.60;;;14.10;99.90;;;;;;5094547;28;20190;-86
2021/12/30 02:34:08;;;;;;;0.57;0.57;;;14.20;99.90;;;;;;5094504;28;20217;-84
2021/12/30 02:36:37;;;;;;;0.50;0.40;;;14.30;99.90;;;;;;5094113;28;20205;-82
2021/12/30 02:39:13;;;;;;;3.13;1.90;;;14.20;99.90;;;;;;5093945;28;20193;-82
2021/12/30 02:41:43;;;;;;;0.40;0.40;;;14.20;99.90;;;;;;5093965;28;20185;-83
2021/12/30 02:44:11;;;;;;;1.33;0.50;;;14.30;99.90;;;;;;5094069;28;20644;-84
2021/12/30 02:46:45;;;;;;;0.57;0.57;;;14.40;99.90;;;;;;5093723;28;20229;-85
2021/12/30 02:49:12;;;;;;;0.60;0.57;;;14.30;99.90;;;;;;5093464;28;20229;-84
2021/12/30 02:51:39;;;;;;;0.60;0.60;;;14.30;99.90;;;;;;5093824;28;20201;-82
2021/12/30 02:54:11;;;;;;;0.50;0.50;;;14.40;99.90;;;;;;5093784;28;20636;-84
2021/12/30 02:56:46;;;;;;;0.40;0.40;;;14.40;99.90;;;;;;5093690;28;20193;-84
2021/12/30 02:59:15;;;;;;;0.30;0.30;;;14.60;99.90;;;;;;5093531;28;20224;-81
2021/12/30 03:01:42;;;;;;;0.30;0.30;;;14.50;99.90;;;;;;5093513;28;20567;-85
2021/12/30 03:04:15;;;;;;;0.40;0.40;;;14.60;99.90;;;;;;5093460;28;20565;-85
2021/12/30 03:06:43;;;;;;;0.30;0.30;;;14.60;99.90;;;;;;5093621;28;20205;-86
2021/12/30 03:09:11;;;;;;;0.50;0.40;;;14.60;99.90;;;;;;5093880;28;20236;-85
2021/12/30 03:11:39;;;;;;;0.63;0.50;;;14.60;99.90;;;;;;5093587;28;20213;-82
2021/12/30 03:14:09;;;;;;;0.30;0.30;;;14.60;99.90;;;;;;5093225;28;20695;-83
2021/12/30 03:16:37;;;;;;;0.40;0.40;;;14.70;99.90;;;;;;5093257;28;20193;-84
2021/12/30 03:19:07;;;;;;;0.30;0.30;;;14.70;99.90;;;;;;5092113;28;20207;-84
2021/12/30 03:21:40;;;;;;;0.40;0.40;;;14.70;99.90;;;;;;5092405;28;20460;-83
2021/12/30 03:24:14;;;;;;;0.20;0.20;;;14.80;99.90;;;;;;5093220;28;20187;-86
2021/12/30 03:26:44;;;;;;;0.70;0.30;;;14.80;99.90;;;;;;5093799;28;20569;-83
2021/12/30 03:29:17;;;;;;;0.40;0.40;;;14.80;99.90;;;;;;5093080;28;20255;-87
2021/12/30 03:31:47;;;;;;;0.40;0.40;;;14.80;99.90;;;;;;5093114;28;20194;-85
2021/12/30 03:34:15;;;;;;;0.33;0.33;;;14.80;99.90;;;;;;5093393;28;20191;-82
2021/12/30 03:36:45;;;;;;;0.30;0.30;;;14.70;99.90;;;;;;5093343;28;20190;-84
2021/12/30 03:39:16;;;;;;;0.27;0.27;;;14.80;99.90;;;;;;5093165;28;20205;-83
2021/12/30 03:41:45;;;;;;;0.33;0.33;;;14.70;99.90;;;;;;5092975;28;20208;-82
2021/12/30 03:44:15;;;;;;;0.30;0.30;;;14.60;99.90;;;;;;5093702;28;20565;-84
2021/12/30 03:46:48;;;;;;;0.63;0.33;;;14.60;99.90;;;;;;5093129;28;20226;-85
2021/12/30 03:49:17;;;;;;;0.40;0.40;;;14.60;99.90;;;;;;5091810;28;20232;-84
2021/12/30 03:51:52;;;;;;;0.30;0.30;;;14.60;99.90;;;;;;5093203;28;20201;-84
2021/12/30 03:54:23;;;;;;;0.30;0.30;;;14.60;99.90;;;;;;5091876;28;20232;-86
2021/12/30 03:56:56;;;;;;;0.40;0.30;;;14.60;99.90;;;;;;5093222;28;20851;-84
2021/12/30 03:59:24;;;;;;;0.40;0.40;;;14.60;99.90;;;;;;5093001;28;20205;-85
2021/12/30 04:01:54;;;;;;;1.30;0.40;;;14.60;99.90;;;;;;5093348;28;20195;-84
2021/12/30 04:04:34;;;;;;;0.60;0.50;;;14.60;99.90;;;;;;5097287;28;20197;-84
2021/12/30 04:07:04;;;;;;;0.53;0.50;;;14.60;99.90;;;;;;5078930;28;20737;-85
2021/12/30 04:09:32;;;;;;;0.50;0.50;;;14.60;99.90;;;;;;5083445;28;20225;-85
2021/12/30 04:12:01;;;;;;;0.63;0.40;;;14.50;99.90;;;;;;5096664;28;20197;-85
2021/12/30 04:14:30;;;;;;;0.53;0.40;;;14.40;99.90;;;;;;5096471;28;20213;-84
2021/12/30 04:16:59;;;;;;;0.60;0.60;;;14.40;99.90;;;;;;5095812;28;20212;-84
2021/12/30 04:19:28;;;;;;;0.70;0.60;;;14.40;99.90;;;;;;5097252;28;20205;-86
2021/12/30 04:21:58;;;;;;;0.50;0.50;;;14.40;99.90;;;;;;5096804;28;20215;-87
2021/12/30 04:24:26;;;;;;;0.60;0.60;;;14.40;99.90;;;;;;5097008;28;20546;-83
2021/12/30 04:27:00;;;;;;;1.17;0.73;;;14.40;99.90;;;;;;5096723;28;20194;-85
2021/12/30 04:29:30;;;;;;;0.80;0.60;;;14.30;99.90;;;;;;5096319;28;20229;-85
2021/12/30 04:31:59;;;;;;;0.60;0.60;;;14.30;99.90;;;;;;5095964;28;20209;-85
2021/12/30 04:34:26;;;;;;;0.68;0.68;;;14.30;99.90;;;;;;5095855;28;20491;-84
2021/12/30 04:36:58;;;;;;;0.93;0.60;;;14.40;99.90;;;;;;5097921;27;20212;-83
2021/12/30 04:39:29;;;;;;;0.67;0.43;;;14.30;99.90;;;;;;5095434;28;20232;-83
2021/12/30 04:42:01;;;;;;;0.97;0.57;;;14.30;99.90;;;;;;5096518;28;20201;-87
2021/12/30 04:44:30;;;;;;;2.70;0.83;;;14.40;99.90;;;;;;5096411;28;20244;-86
2021/12/30 04:47:03;;;;;;;0.83;0.50;;;14.40;99.90;;;;;;5096244;28;20226;-86
2021/12/30 04:49:36;;;;;;;2.47;0.57;;;14.40;99.90;;;;;;5099343;28;20235;-87
2021/12/30 04:52:09;;;;;;;0.53;0.53;;;14.40;99.90;;;;;;5098663;28;20546;-87
2021/12/30 04:54:41;;;;;;;2.07;0.60;;;14.40;99.90;;;;;;5098626;28;20216;-85
2021/12/30 04:57:10;;;;;;;0.47;0.40;;;14.50;99.90;;;;;;5097885;28;20208;-84
2021/12/30 04:59:44;;;;;;;3.03;0.60;;;14.50;99.90;;;;;;5096894;28;20201;-87
2021/12/30 05:02:17;;;;;;;1.53;0.60;;;14.40;99.90;;;;;;5096722;28;20219;-84
2021/12/30 05:04:45;;;;;;;0.40;0.40;;;14.50;99.90;;;;;;5096477;28;20205;-86
2021/12/30 05:07:14;;;;;;;0.97;0.50;;;14.60;99.90;;;;;;5090225;28;20191;-86
2021/12/30 05:09:40;;;;;;;0.43;0.40;;;14.60;99.90;;;;;;5075641;28;20234;-85
2021/12/30 05:12:15;;;;;;;0.60;0.50;;;14.60;99.90;;;;;;5075435;28;20443;-84
2021/12/30 05:15:06;;;;;;;1.40;0.60;;;14.60;99.90;;;;;;5074483;28;20195;-83
2021/12/30 05:17:35;;;;;;;0.50;0.50;;;14.60;99.90;;;;;;5075426;28;20202;-86
2021/12/30 05:20:05;;;;;;;1.30;1.00;;;14.60;99.90;;;;;;5075807;28;20202;-85
2021/12/30 05:22:32;;;;;;;2.63;0.50;;;14.60;99.90;;;;;;5075563;28;20211;-84
2021/12/30 05:25:18;;;;;;;1.27;0.53;;;14.50;99.90;;;;;;5075522;28;20218;-84
2021/12/30 05:27:47;;;;;;;0.87;0.60;;;14.50;99.90;;;;;;5073959;28;20210;-88
2021/12/30 05:30:22;;;;;;;3.00;1.10;;;14.50;99.90;;;;;;5075120;28;20352;-84
2021/12/30 05:32:57;;;;;;;0.77;0.50;;;14.50;99.90;;;;;;5075528;28;20239;-87
2021/12/30 05:35:26;;;;;;;1.03;0.70;;;14.50;99.90;;;;;;5075473;28;20652;-82
2021/12/30 05:37:57;;;;;;;1.10;0.60;;;14.50;99.90;;;;;;5075291;28;20308;-85
2021/12/30 05:40:25;;;;;;;1.43;0.40;;;14.50;99.90;;;;;;5075269;28;20190;-86
2021/12/30 05:42:56;;;;;;;2.03;0.80;;;14.50;99.90;;;;;;5074944;28;20205;-87
2021/12/30 05:45:24;;;;;;;2.33;0.70;;;14.50;99.90;;;;;;5074968;28;20206;-83
2021/12/30 05:47:52;;;;;;;0.90;0.60;;;14.60;99.90;;;;;;5074776;28;20244;-86
2021/12/30 05:50:21;;;;;;;0.80;0.53;;;14.50;99.90;;;;;;5075125;28;20255;-85
2021/12/30 05:52:51;;;;;;;1.17;0.60;;;14.50;99.90;;;;;;5074731;28;20201;-85
2021/12/30 05:55:20;;;;;;;1.17;0.50;;;14.60;99.90;;;;;;5074672;28;20210;-84
2021/12/30 05:57:49;;;;;;;1.07;0.57;;;14.50;99.90;;;;;;5074707;28;20211;-87
2021/12/30 06:00:20;;;;;;;1.43;0.60;;;14.50;99.90;;;;;;5075175;28;20201;-85
2021/12/30 06:02:51;;;;;;;1.33;0.80;;;14.50;99.90;;;;;;5074761;28;20237;-82
2021/12/30 06:05:19;;;;;;;0.63;0.53;;;14.50;99.90;;;;;;5074415;28;20199;-84
2021/12/30 06:07:52;;;;;;;1.30;0.70;;;14.50;99.90;;;;;;5075001;28;20206;-83
2021/12/30 06:10:19;;;;;;;1.13;0.70;;;14.50;99.90;;;;;;5074423;28;20230;-85
2021/12/30 06:12:47;;;;;;;2.40;0.93;;;14.50;99.90;;;;;;5073204;28;20214;-82
2021/12/30 06:15:18;;;;;;;1.57;0.60;;;14.50;99.90;;;;;;5074513;28;20213;-87
2021/12/30 06:17:47;;;;;;;3.77;0.80;;;14.50;99.90;;;;;;5074119;28;20652;-87
2021/12/30 06:20:17;;;;;;;1.03;0.90;;;14.50;99.90;;;;;;5074642;28;20550;-85
2021/12/30 06:22:48;;;;;;;0.77;0.77;;;14.60;99.90;;;;;;5074432;28;20199;-86
2021/12/30 06:25:16;;;;;;;0.53;0.50;;;14.70;99.90;;;;;;5073667;28;20724;-83
2021/12/30 06:27:44;;;;;;;1.25;0.60;;;14.60;99.90;;;;;;5072176;28;20481;-84
2021/12/30 06:30:12;;;;;;;2.10;0.83;;;14.60;99.90;;;;;;5075011;28;20229;-83
2021/12/30 06:32:41;;;;;;;1.10;0.57;;;14.60;99.90;;;;;;5073131;28;20194;-82
2021/12/30 06:35:13;;;;;;;1.60;0.63;;;14.60;99.90;;;;;;5074058;28;20211;-85
2021/12/30 06:37:46;;;;;;;1.27;0.70;;;14.50;99.90;;;;;;5074327;28;20555;-86
2021/12/30 06:40:19;;;;;;;0.97;0.80;;;14.50;99.90;;;;;;5073460;28;20202;-84
2021/12/30 06:42:49;;;;;;;2.23;0.70;;;14.50;99.90;;;;;;5075046;28;20205;-82
2021/12/30 06:45:21;;;;;;;1.70;0.80;;;14.40;99.90;;;;;;5074451;28;20194;-85
2021/12/30 06:47:55;;;;;;;1.17;0.70;;;14.40;99.90;;;;;;5073804;28;20231;-84
2021/12/30 06:50:30;;;;;;;1.83;0.90;;;14.40;99.90;;;;;;5072194;28;20233;-86
2021/12/30 06:53:00;;;;;;;2.00;1.00;;;14.40;99.90;;;;;;5074109;28;20637;-85
2021/12/30 06:55:29;;;;;;;1.20;0.90;;;14.40;99.90;;;;;;5073760;28;20210;-84
2021/12/30 06:57:58;;;;;;;1.00;0.60;;;14.40;99.90;;;;;;5072563;28;20206;-86
2021/12/30 07:00:27;;;;;;;1.20;0.87;;;14.40;99.90;;;;;;5072099;28;20201;-85
2021/12/30 07:02:57;;;;;;;1.30;0.60;;;14.40;99.90;;;;;;5072517;28;20196;-85
2021/12/30 07:05:26;;;;;;;2.00;0.90;;;14.40;99.90;;;;;;5073726;28;20196;-86
2021/12/30 07:07:55;;;;;;;1.70;0.80;;;14.40;99.90;;;;;;5072600;28;20202;-85
2021/12/30 07:10:41;;;;;;;2.80;0.90;;;14.40;99.90;;;;;;5073283;28;20230;-87
2021/12/30 07:13:09;;;;;;;1.90;0.90;;;14.40;99.90;;;;;;5072242;28;20639;-84
2021/12/30 07:15:36;;;;;;;1.60;0.90;;;14.50;99.90;;;;;;5073449;28;20230;-83
2021/12/30 07:18:07;;;;;;;2.30;1.00;;;14.50;99.90;;;;;;5082008;28;20194;-84
2021/12/30 07:20:35;;;;;;;2.87;1.00;;;14.50;99.90;;;;;;5093725;28;20212;-86
2021/12/30 07:23:03;;;;;;;1.07;0.90;;;14.50;99.90;;;;;;5093059;28;20212;-84
2021/12/30 07:25:32;;;;;;;3.40;1.30;;;14.50;99.90;;;;;;5093259;28;20200;-85
2021/12/30 07:28:01;;;;;;;2.17;1.00;;;14.60;99.90;;;;;;5093230;28;20691;-82
2021/12/30 07:30:30;;;;;;;5.23;1.50;;;14.70;99.90;;;;;;5093650;28;20259;-86
2021/12/30 07:33:01;;;;;;;3.20;1.13;;;14.60;99.90;;;;;;5092123;28;20212;-85
2021/12/30 07:35:33;;;;;;;4.33;1.50;;;14.60;99.90;;;;;;5093515;28;20202;-87
2021/12/30 07:38:03;;;;;;;5.00;1.53;;;14.60;99.90;;;;;;5092280;28;20224;-84
2021/12/30 07:40:37;;;;;;;8.23;1.80;;;14.60;99.90;;;;;;5093461;28;20190;-84
2021/12/30 07:43:10;;;;;;;5.70;1.80;;;14.60;99.90;;;;;;5093321;28;20209;-86
2021/12/30 07:45:37;;;;;;;5.90;1.73;;;14.70;99.90;;;;;;5093585;28;20675;-85
2021/12/30 07:48:14;;;;;;;9.00;1.93;;;14.60;99.90;;;;;;5093306;28;20193;-87
2021/12/30 07:51:02;;;;;;;5.90;2.00;;;14.70;99.90;;;;;;5093106;28;20237;-84
2021/12/30 07:53:35;;;;;;;6.00;2.20;;;14.70;99.90;;;;;;5093100;28;20209;-85
2021/12/30 07:56:03;;;;;;;5.80;1.50;;;14.80;99.90;;;;;;5093399;28;20186;-86
2021/12/30 07:58:37;;;;;;;4.97;1.70;;;14.80;99.90;;;;;;5093445;28;20193;-83
2021/12/30 08:01:10;;;;;;;5.67;2.17;;;14.70;99.90;;;;;;5093380;28;20197;-85
2021/12/30 08:03:42;;;;;;;7.33;1.87;;;14.80;99.90;;;;;;5093196;28;20240;-86
2021/12/30 08:06:13;;;;;;;4.80;1.70;;;14.80;99.90;;;;;;5093271;28;20206;-83
2021/12/30 08:08:41;;;;;;;9.77;2.00;;;14.80;99.90;;;;;;5092965;28;20192;-85
2021/12/30 08:11:10;;;;;;;5.87;1.70;;;14.90;99.90;;;;;;5092977;28;20236;-85
2021/12/30 08:13:39;;;;;;;8.20;2.33;;;14.80;99.90;;;;;;5093228;28;20193;-84
2021/12/30 08:16:07;;;;;;;7.27;2.33;;;14.80;99.90;;;;;;5092798;28;20203;-85
2021/12/30 08:18:40;;;;;;;7.17;2.30;;;14.90;99.90;;;;;;5092911;28;20235;-87
2021/12/30 08:21:07;;;;;;;5.97;2.10;;;14.90;99.90;;;;;;5092839;28;20193;-84
2021/12/30 08:23:37;;;;;;;10.23;2.30;;;14.90;99.90;;;;;;5092899;28;20243;-85
2021/12/30 08:26:05;;;;;;;6.30;1.80;;;14.90;99.90;;;;;;5092767;28;20241;-86
2021/12/30 08:28:33;;;;;;;10.50;3.03;;;14.90;99.90;;;;;;5092787;28;20210;-85
2021/12/30 08:31:03;;;;;;;10.33;3.10;;;14.90;99.90;;;;;;5092370;28;20232;-85
2021/12/30 08:33:31;;;;;;;8.33;2.70;;;15.00;99.90;;;;;;5086905;28;20206;-85
2021/12/30 08:36:00;;;;;;;8.90;2.30;;;15.00;99.90;;;;;;5080859;28;20203;-83
2021/12/30 08:38:28;;;;;;;7.37;2.27;;;15.00;99.90;;;;;;5080372;28;20212;-85
2021/12/30 08:40:59;;;;;;;12.93;3.20;;;15.00;99.90;;;;;;5081533;28;20198;-84
2021/12/30 08:43:27;;;;;;;10.87;2.67;;;15.00;99.90;;;;;;5084537;28;20223;-85
2021/12/30 08:45:55;;;;;;;13.00;3.37;;;15.10;99.90;;;;;;5080826;28;20226;-85
2021/12/30 08:48:22;;;;;;;7.57;2.30;;;15.00;99.90;;;;;;5079146;28;20202;-85
2021/12/30 08:50:52;;;;;;;12.30;3.13;;;15.00;99.90;;;;;;5075703;28;20240;-83
2021/12/30 08:53:22;;;;;;;9.63;2.53;;;15.00;99.90;;;;;;5076098;28;20211;-83
2021/12/30 08:55:49;;;;;;;12.00;2.63;;;15.00;99.90;;;;;;5076283;28;20191;-84
2021/12/30 08:58:20;;;;;;;11.03;2.83;;;15.10;99.90;;;;;;5075890;28;20424;-84
2021/12/30 09:00:48;;;;;;;9.80;2.83;;;15.10;99.90;;;;;;5075881;28;20204;-86
2021/12/30 09:03:20;;;;;;;13.33;3.27;;;15.10;99.90;;;;;;5076185;28;20197;-86
2021/12/30 09:05:50;;;;;;;9.93;3.23;;;15.10;99.90;;;;;;5074692;28;20257;-84
2021/12/30 09:08:18;;;;;;;12.47;3.00;;;15.10;99.90;;;;;;5095889;28;20647;-87
2021/12/30 09:10:49;;;;;;;12.27;3.03;;;15.10;99.90;;;;;;5095796;28;20635;-85
2021/12/30 09:13:20;;;;;;;14.97;3.07;;;15.10;99.90;;;;;;5095675;28;20684;-85
2021/12/30 09:15:49;;;;;;;12.07;2.90;;;15.10;99.90;;;;;;5096015;28;20304;-84
2021/12/30 09:18:18;;;;;;;8.57;2.30;;;15.10;99.90;;;;;;5090853;28;20623;-83
2021/12/30 09:20:45;;;;;;;10.77;3.30;;;15.10;99.90;;;;;;5080865;28;20188;-89
2021/12/30 09:23:25;;;;;;;9.03;2.47;;;15.10;99.90;;;;;;5085979;28;20211;-87
2021/12/30 09:25:56;;;;;;;9.23;2.50;;;15.10;99.90;;;;;;5085408;28;20629;-86
2021/12/30 09:28:28;;;;;;;10.37;3.10;;;15.10;99.90;;;;;;5083409;28;20204;-86
2021/12/30 09:31:01;;;;;;;8.63;2.43;;;15.10;99.90;;;;;;5075260;28;20239;-87
2021/12/30 09:33:28;;;;;;;13.30;3.20;;;15.10;99.90;;;;;;5075122;28;20495;-87
2021/12/30 09:39:10;;;;;;;9.60;2.67;;;15.10;99.90;;;;;;5078674;28;20198;-88
2021/12/30 09:41:40;;;;;;;10.63;2.90;;;15.10;99.90;;;;;;5095916;28;20195;-90
2021/12/30 09:44:10;;;;;;;14.93;3.03;;;15.10;99.90;;;;;;5092922;28;20197;-88
2021/12/30 09:46:40;;;;;;;9.47;2.77;;;15.10;99.90;;;;;;5075115;28;20229;-87
2021/12/30 09:49:12;;;;;;;7.17;2.30;;;15.20;99.90;;;;;;5076181;28;20218;-85
2021/12/30 09:51:43;;;;;;;6.73;3.67;;;15.20;99.90;;;;;;5075169;28;20544;-86
2021/12/30 09:54:10;;;;;;;12.70;3.27;;;15.20;99.90;;;;;;5075051;28;20233;-87
2021/12/30 09:56:43;;;;;;;10.60;2.60;;;15.30;99.90;;;;;;5075224;28;20224;-87
2021/12/30 09:59:14;;;;;;;11.90;3.50;;;15.20;99.90;;;;;;5074725;28;20656;-87
2021/12/30 10:01:43;;;;;;;13.30;3.17;;;15.30;99.90;;;;;;5074962;28;20203;-87
2021/12/30 10:04:13;;;;;;;10.07;2.53;;;15.20;99.90;;;;;;5082450;28;20203;-86
2021/12/30 10:06:43;;;;;;;13.43;3.20;;;15.20;99.90;;;;;;5095101;28;20268;-86
2021/12/30 10:09:12;;;;;;;12.27;3.50;;;15.30;99.90;;;;;;5095305;28;20193;-90
2021/12/30 10:11:50;;;;;;;11.87;3.57;;;15.40;99.90;;;;;;5093432;28;20234;-90
2021/12/30 10:14:29;;;;;;;12.53;3.13;;;15.40;99.90;;;;;;5079870;28;20288;-86
2021/12/30 10:17:19;;;;;;;9.87;2.90;;;15.40;99.90;;;;;;5088682;28;20210;-88
2021/12/30 10:19:51;;;;;;;9.43;2.60;;;15.40;99.90;;;;;;5095067;28;20638;-87
2021/12/30 10:22:22;;;;;;;8.10;2.37;;;15.40;99.90;;;;;;5093652;28;20634;-79
2021/12/30 10:24:52;;;;;;;8.67;2.67;;;15.40;99.90;;;;;;5074075;28;20288;-86
2021/12/30 10:27:27;;;;;;;6.47;3.33;;;15.40;99.90;;;;;;5073852;28;20199;-86
2021/12/30 10:29:58;;;;;;;8.00;2.50;;;15.40;99.90;;;;;;5075163;28;20216;-90
2021/12/30 10:32:28;;;;;;;8.98;3.00;;;15.30;99.90;;;;;;5074753;28;20454;-90
2021/12/30 10:35:07;;;;;;;6.70;2.43;;;15.40;99.90;;;;;;5074493;28;20591;-89
2021/12/30 10:37:34;;;;;;;13.30;5.30;;;15.40;99.90;;;;;;5075639;28;20203;-88
2021/12/30 10:40:01;;;;;;;10.57;2.80;;;15.40;99.90;;;;;;5075421;28;20199;-91
2021/12/30 10:42:30;;;;;;;8.10;2.63;;;15.30;99.90;;;;;;5075544;28;20288;-90
2021/12/30 10:45:02;;;;;;;10.07;2.37;;;15.30;99.90;;;;;;5075383;28;20199;-87
2021/12/30 10:47:30;;;;;;;7.20;2.40;;;15.30;99.90;;;;;;5075304;28;20271;-92
2021/12/30 10:49:59;;;;;;;7.47;2.77;;;15.20;99.90;;;;;;5075627;28;20212;-93
2021/12/30 10:52:26;;;;;;;8.70;3.03;;;15.40;99.90;;;;;;5075414;28;20627;-91
2021/12/30 10:54:53;;;;;;;9.00;2.93;;;15.30;99.90;;;;;;5075613;28;20212;-88
2021/12/30 10:57:21;;;;;;;9.77;2.23;;;15.30;99.90;;;;;;5075191;28;20203;-91
2021/12/30 10:59:50;;;;;;;15.90;3.63;;;15.30;99.90;;;;;;5074722;28;20204;-90
2021/12/30 11:02:21;;;;;;;6.97;3.15;;;15.30;99.90;;;;;;5073365;28;20459;-90
2021/12/30 11:04:50;;;;;;;9.77;3.00;;;15.30;99.90;;;;;;5074409;28;20238;-87
2021/12/30 11:07:18;;;;;;;7.50;2.50;;;15.30;99.90;;;;;;5075418;28;20658;-90
2021/12/30 11:09:50;;;;;;;5.13;2.93;;;15.40;99.90;;;;;;5074492;28;20188;-83
2021/12/30 11:12:29;;;;;;;6.17;2.20;;;15.40;99.90;;;;;;5072040;28;20215;-85
2021/12/30 11:14:57;;;;;;;5.93;2.40;;;15.40;99.90;;;;;;5072997;28;20213;-84
2021/12/30 11:17:33;;;;;;;6.47;2.67;;;15.40;99.90;;;;;;5073254;28;20211;-85
2021/12/30 11:20:03;;;;;;;9.23;2.87;;;15.30;99.90;;;;;;5073683;28;20215;-86
2021/12/30 11:22:32;;;;;;;10.83;2.90;;;15.40;99.90;;;;;;5073467;28;20212;-86
2021/12/30 11:25:01;;;;;;;6.23;3.00;;;15.40;99.90;;;;;;5072647;28;20664;-87
2021/12/30 11:27:29;;;;;;;6.03;2.57;;;15.40;99.90;;;;;;5072238;28;20233;-84
2021/12/30 11:29:58;;;;;;;8.30;3.20;;;15.30;99.90;;;;;;5072664;28;20417;-84
2021/12/30 11:32:30;;;;;;;7.47;2.73;;;15.40;99.90;;;;;;5072929;28;20247;-83
2021/12/30 11:34:57;;;;;;;5.50;2.43;;;15.50;99.90;;;;;;5073339;28;20605;-81
2021/12/30 11:37:25;;;;;;;8.67;2.73;;;15.70;99.90;;;;;;5073015;28;20213;-84
2021/12/30 11:39:55;;;;;;;8.67;3.10;;;15.60;99.90;;;;;;5073152;28;20216;-82
2021/12/30 11:42:24;;;;;;;6.17;2.50;;;15.60;99.90;;;;;;5072860;28;20660;-85
2021/12/30 11:44:53;;;;;;;6.33;2.73;;;15.50;99.90;;;;;;5072995;28;20211;-83
2021/12/30 11:47:43;;;;;;;7.77;2.90;;;15.60;99.90;;;;;;5073039;28;20223;-84
2021/12/30 11:50:14;;;;;;;5.53;2.63;;;15.40;99.90;;;;;;5073044;28;20202;-85
2021/12/30 11:52:57;;;;;;;5.43;2.60;;;15.50;99.90;;;;;;5072917;28;20274;-84
2021/12/30 11:55:59;;;;;;;6.87;3.30;;;15.40;99.90;;;;;;5072975;28;20203;-85
2021/12/30 11:58:40;;;;;;;4.37;2.60;;;15.30;99.90;;;;;;5011050;28;20213;-86
2021/12/30 12:01:30;;;;;;;5.83;2.93;;;15.30;99.90;;;;;;5011457;28;20288;-85
2021/12/30 12:03:59;;;;;;;5.53;3.10;;;15.30;99.90;;;;;;5044717;28;20215;-80
2021/12/30 12:06:34;;;;;;;8.43;3.20;;;15.40;99.90;;;;;;5072402;28;20207;-85
2021/12/30 12:09:04;;;;;;;8.50;3.30;;;15.50;99.90;;;;;;5072307;28;20211;-83
2021/12/30 12:11:44;;;;;;;7.23;3.13;;;15.40;99.90;;;;;;5072469;28;20702;-83
2021/12/30 12:14:13;;;;;;;8.40;3.47;;;15.40;99.90;;;;;;5070844;28;20205;-83
2021/12/30 12:16:47;;;;;;;8.33;3.23;;;15.40;99.90;;;;;;5071892;28;20238;-85
2021/12/30 12:19:17;;;;;;;5.80;3.13;;;15.40;99.90;;;;;;5071608;28;20205;-82
2021/12/30 12:21:48;;;;;;;7.00;3.00;;;15.30;99.90;;;;;;5072380;28;20723;-83
2021/12/30 12:24:33;;;;;;;9.23;3.90;;;15.30;99.90;;;;;;5074981;28;20203;-83
2021/12/30 12:27:02;;;;;;;7.70;3.17;;;15.30;99.90;;;;;;5075806;28;20257;-81
2021/12/30 12:29:31;;;;;;;8.23;3.30;;;15.30;99.90;;;;;;5074871;28;20215;-84
2021/12/30 12:32:00;;;;;;;9.10;3.30;;;15.50;99.90;;;;;;5085727;28;20689;-81
2021/12/30 12:34:41;;;;;;;7.90;3.77;;;15.40;99.90;;;;;;5075282;28;20205;-83
2021/12/30 12:37:44;;;;;;;6.13;3.10;;;15.50;99.90;;;;;;5075472;28;20197;-81
2021/12/30 12:40:13;;;;;;;6.50;3.07;;;15.30;99.90;;;;;;5075276;28;20216;-81
2021/12/30 12:43:01;;;;;;;8.27;3.20;;;15.30;99.90;;;;;;5074771;28;20199;-81
2021/12/30 12:45:32;;;;;;;8.13;3.00;;;15.20;99.90;;;;;;5075469;28;20229;-82
2021/12/30 12:48:24;;;;;;;8.63;3.13;;;15.30;99.90;;;;;;5075245;28;20215;-85
2021/12/30 12:50:56;;;;;;;6.87;3.07;;;15.40;99.90;;;;;;5075344;28;20200;-82
2021/12/30 12:53:41;;;;;;;9.23;3.20;;;15.50;99.90;;;;;;5074894;28;20443;-84
2021/12/30 12:56:11;;;;;;;7.53;2.43;;;15.50;99.90;;;;;;5074311;28;20299;-84
2021/12/30 12:58:40;;;;;;;6.83;3.00;;;15.50;99.90;;;;;;5075738;28;20198;-85
2021/12/30 13:01:12;;;;;;;8.37;2.53;;;15.50;99.90;;;;;;5075262;28;20295;-85
2021/12/30 13:03:40;;;;;;;6.27;2.70;;;15.50;99.90;;;;;;5075191;28;20219;-83
2021/12/30 13:06:10;;;;;;;5.73;2.73;;;15.50;99.90;;;;;;5075099;28;20297;-82
2021/12/30 13:08:41;;;;;;;7.93;3.10;;;15.60;99.90;;;;;;5083536;28;20200;-81